createdAt,value
2023-02-11T00:04:28.660Z,100110.67
2023-02-11T00:08:52.877Z,100106.55
2023-02-11T00:13:16.903Z,100100.59
2023-02-11T00:17:41.401Z,100094.56
2023-02-11T00:22:08.047Z,100089.52
2023-02-11T00:27:04.446Z,100099.31
2023-02-11T00:31:09.400Z,100102.94
2023-02-11T00:35:35.691Z,100109.79
2023-02-11T00:40:01.700Z,100101.67
2023-02-11T00:44:24.326Z,100105.79
2023-02-11T00:48:48.342Z,100099.80
2023-02-11T00:53:19.665Z,100093.29
2023-02-11T00:57:44.149Z,100091.39
2023-02-11T01:02:08.159Z,100094.31
2023-02-11T01:06:32.145Z,100085.88
2023-02-11T01:10:56.195Z,100091.55
2023-02-11T01:15:20.232Z,100089.45
2023-02-11T01:19:43.294Z,100090.27
2023-02-11T01:24:25.967Z,100090.12
2023-02-11T01:28:55.627Z,100086.36
2023-02-11T01:33:19.850Z,100084.79
2023-02-11T01:37:44.364Z,100090.29
2023-02-11T01:42:08.334Z,100084.60
2023-02-11T01:46:42.128Z,100080.31
2023-02-11T01:51:29.919Z,100075.17
2023-02-11T01:55:52.565Z,100081.02
2023-02-11T02:00:16.485Z,100075.51
2023-02-11T02:04:40.571Z,100082.34
2023-02-11T02:09:34.278Z,100071.41
2023-02-11T02:13:58.860Z,100056.80
2023-02-11T02:18:43.153Z,100052.35
2023-02-11T02:23:26.388Z,100042.01
2023-02-11T02:27:51.779Z,100041.96
2023-02-11T02:32:47.862Z,100038.87
2023-02-11T02:37:53.630Z,100027.55
2023-02-11T02:42:17.779Z,100023.80
2023-02-11T02:46:50.806Z,100022.58
2023-02-11T02:51:23.640Z,100014.29
2023-02-11T02:56:26.154Z,100013.56
2023-02-11T03:00:53.114Z,100000.95
2023-02-11T03:05:29.314Z,99999.89
2023-02-11T03:09:53.607Z,99990.55
2023-02-11T03:14:17.599Z,99986.94
2023-02-11T03:18:41.514Z,99981.45
2023-02-11T03:23:08.258Z,99969.40
2023-02-11T03:27:35.311Z,99962.00
2023-02-11T03:32:02.574Z,99960.46
2023-02-11T03:36:52.581Z,99962.36
2023-02-11T03:41:17.383Z,99961.87
2023-02-11T03:46:01.367Z,99967.87
2023-02-11T03:50:29.398Z,99959.31
2023-02-11T03:54:53.869Z,99959.86
2023-02-11T03:59:33.931Z,99961.39
2023-02-11T04:03:58.395Z,99959.25
2023-02-11T04:08:31.043Z,99954.22
2023-02-11T04:12:59.444Z,99944.09
2023-02-11T04:17:43.432Z,99934.33
2023-02-11T04:22:07.518Z,99935.21
2023-02-11T04:26:31.875Z,99934.03
2023-02-11T04:30:56.665Z,99941.58
2023-02-11T04:35:24.938Z,99926.61
2023-02-11T04:39:49.312Z,99919.73
2023-02-11T04:44:17.137Z,99916.11
2023-02-11T04:48:43.932Z,99918.16
2023-02-11T04:53:07.923Z,99919.16
2023-02-11T04:57:31.927Z,99907.96
2023-02-11T05:01:55.967Z,99906.60
2023-02-11T05:06:19.630Z,99903.60
2023-02-11T05:10:43.631Z,99907.30
2023-02-11T05:15:07.685Z,99901.80
2023-02-11T05:19:40.426Z,99894.12
2023-02-11T05:24:04.770Z,99882.26
2023-02-11T05:28:28.808Z,99876.09
2023-02-11T05:32:55.185Z,99866.50
2023-02-11T05:37:19.545Z,99853.95
2023-02-11T05:41:43.648Z,99849.52
2023-02-11T05:46:07.689Z,99852.10
2023-02-11T05:50:31.711Z,99849.33
2023-02-11T05:54:55.659Z,99850.73
2023-02-11T05:59:19.595Z,99852.79
2023-02-11T06:03:43.308Z,99854.35
2023-02-11T06:08:09.457Z,99861.73
2023-02-11T06:12:49.016Z,99875.87
2023-02-11T06:17:15.643Z,99874.19
2023-02-11T06:21:43.973Z,99866.83
2023-02-11T06:26:10.835Z,99860.33
2023-02-11T06:30:34.786Z,99840.04
2023-02-11T06:34:58.689Z,99835.74
2023-02-11T06:39:43.527Z,99840.05
2023-02-11T06:44:15.634Z,99839.36
2023-02-11T06:48:39.503Z,99831.10
2023-02-11T06:53:24.701Z,99826.27
2023-02-11T06:57:52.439Z,99826.27
2023-02-11T07:02:38.496Z,99821.23
2023-02-11T07:07:04.809Z,99816.91
2023-02-11T07:11:29.490Z,99809.14
2023-02-11T07:16:22.547Z,99814.26
2023-02-11T07:21:26.353Z,99812.66
2023-02-11T07:26:11.396Z,99821.08
2023-02-11T07:30:56.507Z,99824.32
2023-02-11T07:35:22.913Z,99820.19
2023-02-11T07:39:46.963Z,99809.48
2023-02-11T07:44:09.333Z,99811.34
2023-02-11T07:48:33.377Z,99804.91
2023-02-11T07:53:22.751Z,99801.91
2023-02-11T07:58:07.238Z,99798.61
2023-02-11T08:03:04.008Z,99790.02
2023-02-11T08:07:36.108Z,99787.90
2023-02-11T08:12:28.666Z,99779.55
2023-02-11T08:16:59.808Z,99776.39
2023-02-11T08:21:23.813Z,99767.18
2023-02-11T08:26:07.972Z,99762.76
2023-02-11T08:30:54.187Z,99778.61
2023-02-11T08:35:40.321Z,99773.54
2023-02-11T08:40:44.303Z,99769.34
2023-02-11T08:45:28.225Z,99762.82
2023-02-11T08:50:16.642Z,99753.48
2023-02-11T08:55:20.584Z,99745.55
2023-02-11T09:00:24.125Z,99742.79
2023-02-11T09:05:28.946Z,99744.56
2023-02-11T09:10:32.970Z,99754.73
2023-02-11T09:15:36.852Z,99751.20
2023-02-11T09:20:41.263Z,99751.12
2023-02-11T09:25:45.118Z,99740.94
2023-02-11T09:30:49.388Z,99732.30
2023-02-11T09:35:53.086Z,99731.98
2023-02-11T09:40:57.068Z,99734.54
2023-02-11T09:46:07.998Z,99726.14
2023-02-11T09:50:53.921Z,99717.90
2023-02-11T09:55:59.011Z,99709.08
2023-02-11T10:01:05.931Z,99698.27
2023-02-11T10:06:07.961Z,99685.80
2023-02-11T10:10:58.214Z,99677.34
2023-02-11T10:16:05.009Z,99669.04
2023-02-11T10:21:11.471Z,99661.44
2023-02-11T10:25:56.469Z,99645.91
2023-02-11T10:31:03.074Z,99633.30
2023-02-11T10:35:54.484Z,99628.32
2023-02-11T10:40:54.459Z,99613.63
2023-02-11T10:45:18.422Z,99608.46
2023-02-11T10:50:05.157Z,99606.52
2023-02-11T10:54:46.134Z,99595.74
2023-02-11T10:59:13.155Z,99593.79
2023-02-11T11:03:16.719Z,99590.46
2023-02-11T11:07:39.054Z,99585.96
2023-02-11T11:12:03.018Z,99573.71
2023-02-11T11:16:27.296Z,99566.27
2023-02-11T11:21:25.044Z,99559.67
2023-02-11T11:26:00.864Z,99555.58
2023-02-11T11:31:05.679Z,99541.04
2023-02-11T11:36:08.940Z,99537.84
2023-02-11T11:41:17.814Z,99526.02
2023-02-11T11:46:16.266Z,99519.40
2023-02-11T11:51:26.484Z,99516.35
2023-02-11T11:56:33.878Z,99513.98
2023-02-11T12:01:40.606Z,99511.98
2023-02-11T12:06:53.093Z,99508.64
2023-02-11T12:11:58.231Z,99493.39
2023-02-11T12:17:05.614Z,99484.80
2023-02-11T12:22:24.918Z,99472.83
2023-02-11T12:27:27.085Z,99470.60
2023-02-11T12:32:00.401Z,99455.80
2023-02-11T12:37:03.476Z,99449.52
2023-02-11T12:41:54.282Z,99439.09
2023-02-11T12:46:52.555Z,99422.84
2023-02-11T12:51:50.258Z,99410.77
2023-02-11T12:56:37.064Z,99404.61
2023-02-11T13:01:49.719Z,99392.33
2023-02-11T13:06:53.661Z,99385.69
2023-02-11T13:11:40.530Z,99379.80
2023-02-11T13:16:46.891Z,99383.92
2023-02-11T13:21:55.708Z,99386.19
2023-02-11T13:26:59.475Z,99385.00
2023-02-11T13:32:05.421Z,99386.15
2023-02-11T13:37:10.530Z,99381.86
2023-02-11T13:42:19.286Z,99384.56
2023-02-11T13:47:27.450Z,99396.64
2023-02-11T13:52:37.209Z,99392.50
2023-02-11T13:57:39.815Z,99401.31
2023-02-11T14:02:29.072Z,99385.04
2023-02-11T14:07:46.739Z,99381.64
2023-02-11T14:12:57.400Z,99365.48
2023-02-11T14:18:02.372Z,99368.52
2023-02-11T14:23:21.891Z,99357.51
2023-02-11T14:28:31.620Z,99363.42
2023-02-11T14:33:20.428Z,99366.13
2023-02-11T14:38:44.686Z,99361.84
2023-02-11T14:43:15.198Z,99367.45
2023-02-11T14:47:42.581Z,99353.55
2023-02-11T14:52:06.579Z,99343.47
2023-02-11T14:57:22.705Z,99332.73
2023-02-11T15:02:09.669Z,99309.35
2023-02-11T15:07:08.428Z,99288.15
2023-02-11T15:11:36.006Z,99296.22
2023-02-11T15:16:39.544Z,99295.31
2023-02-11T15:21:23.464Z,99300.33
2023-02-11T15:25:47.534Z,99309.16
2023-02-11T15:30:17.937Z,99288.31
2023-02-11T15:34:42.046Z,99301.38
2023-02-11T15:39:05.963Z,99296.83
2023-02-11T15:43:44.226Z,99289.90
2023-02-11T15:48:30.952Z,99272.56
2023-02-11T15:52:55.060Z,99261.60
2023-02-11T15:57:21.897Z,99259.71
2023-02-11T16:01:45.851Z,99287.29
2023-02-11T16:06:12.479Z,99315.06
2023-02-11T16:11:01.163Z,99320.90
2023-02-11T16:15:46.628Z,99331.27
2023-02-11T16:20:13.212Z,99332.15
2023-02-11T16:24:35.418Z,99329.92
2023-02-11T16:28:59.399Z,99319.81
2023-02-11T16:33:25.235Z,99326.73
2023-02-11T16:37:49.277Z,99353.64
2023-02-11T16:42:15.442Z,99339.96
2023-02-11T16:46:39.833Z,99349.79
2023-02-11T16:51:26.379Z,99367.94
2023-02-11T16:56:13.072Z,99348.72
2023-02-11T17:00:40.953Z,99341.46
2023-02-11T17:05:07.787Z,99350.39
2023-02-11T17:09:31.882Z,99344.70
2023-02-11T17:13:59.697Z,99348.44
2023-02-11T17:18:23.606Z,99343.84
2023-02-11T17:22:47.681Z,99341.38
2023-02-11T17:27:12.702Z,99343.42
2023-02-11T17:31:37.040Z,99337.63
2023-02-11T17:36:21.304Z,99340.76
2023-02-11T17:40:49.516Z,99345.29
2023-02-11T17:45:33.859Z,99324.39
2023-02-11T17:50:18.893Z,99322.06
2023-02-11T17:55:02.928Z,99324.56
2023-02-11T17:59:27.445Z,99322.48
2023-02-11T18:03:53.656Z,99319.68
2023-02-11T18:08:17.681Z,99314.91
2023-02-11T18:12:43.036Z,99322.98
2023-02-11T18:17:27.069Z,99324.11
2023-02-11T18:22:13.870Z,99319.39
2023-02-11T18:26:38.253Z,99321.90
2023-02-11T18:31:23.243Z,99327.02
2023-02-11T18:36:09.475Z,99322.05
2023-02-11T18:40:34.195Z,99322.81
2023-02-11T18:44:58.505Z,99325.48
2023-02-11T18:49:42.519Z,99313.95
2023-02-11T18:54:46.682Z,99312.98
2023-02-11T18:59:50.524Z,99309.52
2023-02-11T19:04:54.485Z,99305.58
2023-02-11T19:09:18.943Z,99304.61
2023-02-11T19:14:23.235Z,99305.58
2023-02-11T19:19:07.787Z,99300.34
2023-02-11T19:24:11.781Z,99308.52
2023-02-11T19:29:11.976Z,99309.06
2023-02-11T19:34:15.846Z,99316.75
2023-02-11T19:38:40.808Z,99321.17
2023-02-11T19:43:45.812Z,99311.36
2023-02-11T19:48:26.553Z,99315.77
2023-02-11T19:53:31.596Z,99307.77
2023-02-11T19:58:28.221Z,99324.05
2023-02-11T20:03:33.080Z,99315.77
2023-02-11T20:08:33.980Z,99321.73
2023-02-11T20:13:35.256Z,99329.62
2023-02-11T20:18:39.775Z,99321.09
2023-02-11T20:23:23.785Z,99323.14
2023-02-11T20:27:47.748Z,99329.45
2023-02-11T20:32:19.790Z,99327.64
2023-02-11T20:37:09.287Z,99317.78
2023-02-11T20:41:53.790Z,99309.22
2023-02-11T20:46:42.353Z,99303.53
2023-02-11T20:51:37.790Z,99304.11
2023-02-11T20:56:05.789Z,99307.94
2023-02-11T21:00:30.124Z,99311.79
2023-02-11T21:05:15.149Z,99309.60
2023-02-11T21:09:59.041Z,99315.67
2023-02-11T21:14:23.502Z,99324.88
2023-02-11T21:19:27.702Z,99324.58
2023-02-11T21:24:11.647Z,99330.11
2023-02-11T21:28:36.069Z,99322.68
2023-02-11T21:33:00.876Z,99323.41
2023-02-11T21:37:44.751Z,99321.83
2023-02-11T21:42:13.192Z,99327.52
2023-02-11T21:46:46.649Z,99332.55
2023-02-11T21:51:45.509Z,99332.42
2023-02-11T21:56:27.834Z,99344.42
2023-02-11T22:00:43.089Z,99344.23
2023-02-11T22:05:07.198Z,99344.52
2023-02-11T22:09:23.837Z,99348.13
2023-02-11T22:13:47.795Z,99346.76
2023-02-11T22:18:32.704Z,99346.40
2023-02-11T22:23:16.816Z,99345.20
2023-02-11T22:27:58.133Z,99344.73
2023-02-11T22:32:25.224Z,99360.62
2023-02-11T22:37:02.761Z,99369.72
2023-02-11T22:41:19.832Z,99370.71
2023-02-11T22:45:48.138Z,99378.16
2023-02-11T22:50:13.575Z,99381.21
2023-02-11T22:54:57.310Z,99382.20
2023-02-11T22:59:23.471Z,99379.60
2023-02-11T23:03:47.438Z,99391.11
2023-02-11T23:08:31.616Z,99392.21
2023-02-11T23:13:36.334Z,99392.80
2023-02-11T23:18:36.201Z,99398.18
2023-02-11T23:23:00.227Z,99401.65
2023-02-11T23:27:44.296Z,99388.36
2023-02-11T23:32:15.521Z,99382.46
2023-02-11T23:37:09.203Z,99372.42
2023-02-11T23:41:41.407Z,99368.73
2023-02-11T23:46:05.543Z,99366.63
2023-02-11T23:50:50.224Z,99364.86
2023-02-11T23:55:54.091Z,99371.83
